Time;durP1;ratioP1;P1;durP2;ratioP2;P2;SDS_P1;SDS_P2;PMS_P1;PMS_P2;Temp;Humidity;BMP_temperature;BMP_pressure;BME280_temperature;BME280_humidity;BME280_pressure;Samples;Min_cycle;Max_cycle;Signal;HPM_P1;HPM_P2
2022/03/22 00:01:14;;;;;;;83.75;36.33;;;;;;;0.85;48.36;96493.94;4998949;28;20105;-83
2022/03/22 00:03:40;;;;;;;82.82;37.47;;;;;;;1.81;48.43;96637.53;4982991;28;20935;-83
2022/03/22 00:06:06;;;;;;;93.35;38.70;;;;;;;1.47;48.64;96615.38;4983953;28;20042;-83
2022/03/22 00:08:32;;;;;;;83.50;37.72;;;;;;;1.73;49.16;96645.47;4984478;28;20049;-83
2022/03/22 00:10:58;;;;;;;83.40;37.95;;;;;;;0.48;48.25;96419.13;4983819;28;20793;-84
2022/03/22 00:13:25;;;;;;;88.05;36.80;;;;;;;1.06;48.99;96522.78;4983297;28;20041;-83
2022/03/22 00:15:51;;;;;;;84.13;35.10;;;;;;;1.77;48.84;96638.88;4983207;28;20085;-83
2022/03/22 00:18:19;;;;;;;86.78;36.25;;;;;;;1.03;47.84;96549.25;4982512;28;20762;-82
2022/03/22 00:20:44;;;;;;;85.85;35.85;;;;;;;0.64;47.39;96474.59;4983517;28;20489;-83
2022/03/22 00:23:11;;;;;;;75.70;35.08;;;;;;;1.68;47.49;96624.28;4984675;28;20094;-84
2022/03/22 00:37:57;;;;;;;71.80;36.08;;;;;;;1.89;46.22;96524.94;5127176;27;20156;-86
2022/03/22 00:40:25;;;;;;;78.47;36.03;;;;;;;2.75;45.79;96662.66;5089272;28;20126;-88
2022/03/22 00:42:53;;;;;;;76.50;33.88;;;;;;;2.52;45.50;96644.50;5090063;28;20062;-86
2022/03/22 00:45:21;;;;;;;72.20;34.08;;;;;;;2.53;45.84;96621.75;5090157;28;20028;-86
2022/03/22 00:47:48;;;;;;;66.85;31.27;;;;;;;2.05;45.17;96532.53;5089443;28;20055;-89
2022/03/22 00:50:16;;;;;;;71.22;32.28;;;;;;;0.31;45.19;96260.13;5088669;28;20494;-87
2022/03/22 00:52:43;;;;;;;81.43;33.95;;;;;;;0.08;45.47;96235.19;5088556;28;20054;-86
2022/03/22 00:55:12;;;;;;;80.30;34.97;;;;;;;2.27;45.71;96555.09;5089043;28;20122;-88
2022/03/22 01:10:11;;;;;;;75.82;37.03;;;;;;;1.98;45.64;96495.03;5106030;27;20373;-82
2022/03/22 01:12:38;;;;;;;79.82;35.40;;;;;;;2.91;45.83;96657.16;5082344;28;20064;-83
2022/03/22 01:15:16;;;;;;;79.15;33.67;;;;;;;3.05;46.64;96658.88;5070098;28;20043;-82
2022/03/22 01:17:47;;;;;;;81.55;33.83;;;;;;;1.01;46.35;96329.97;5101621;28;20023;-83
2022/03/22 01:20:13;;;;;;;69.43;33.33;;;;;;;2.53;46.52;96606.84;5110933;28;20032;-82
2022/03/22 01:22:41;;;;;;;72.18;32.97;;;;;;;2.91;46.41;96646.66;5113141;28;20035;-83
2022/03/22 01:25:13;;;;;;;74.30;35.25;;;;;;;2.82;46.63;96626.88;5074004;28;20052;-83
2022/03/22 01:27:40;;;;;;;73.47;33.30;;;;;;;2.98;46.63;96639.66;5096837;28;20031;-82
2022/03/22 01:30:07;;;;;;;70.22;33.30;;;;;;;2.23;46.52;96524.22;5083207;28;20043;-83
2022/03/22 01:32:36;;;;;;;79.25;33.63;;;;;;;3.03;46.11;96644.34;5116873;28;20055;-83
2022/03/22 01:35:03;;;;;;;70.47;31.58;;;;;;;2.78;46.69;96635.28;5085449;28;20024;-83
2022/03/22 01:37:29;;;;;;;77.15;33.10;;;;;;;2.87;46.41;96636.75;5080373;28;20074;-83
2022/03/22 01:39:55;;;;;;;86.88;34.90;;;;;;;2.73;46.66;96635.84;5081847;28;20506;-83
2022/03/22 01:42:21;;;;;;;74.25;32.85;;;;;;;0.94;47.24;96410.09;5080192;28;20031;-83
2022/03/22 01:44:48;;;;;;;70.03;32.80;;;;;;;2.22;46.91;96591.47;5085279;28;20040;-83
2022/03/22 01:47:16;;;;;;;73.50;34.63;;;;;;;2.74;47.01;96628.81;5088225;28;20036;-83
2022/03/22 01:49:41;;;;;;;74.50;32.42;;;;;;;2.60;47.83;96607.72;5080956;28;20034;-84
2022/03/22 01:52:09;;;;;;;69.90;32.58;;;;;;;1.65;47.28;96457.28;5093411;28;20402;-83
2022/03/22 01:54:35;;;;;;;74.68;33.00;;;;;;;2.13;48.34;96569.06;5092388;28;20040;-84
2022/03/22 01:57:01;;;;;;;68.60;31.45;;;;;;;2.04;48.41;96611.22;5098280;28;20028;-83
2022/03/22 01:59:26;;;;;;;62.20;29.70;;;;;;;2.26;48.57;96634.59;5097757;28;20051;-83
2022/03/22 02:07:21;;;;;;;60.10;29.73;;;;;;;2.01;48.33;96554.00;5084879;28;20445;-83
2022/03/22 02:09:46;;;;;;;61.00;29.63;;;;;;;2.54;47.55;96621.56;5088773;28;20052;-83
2022/03/22 02:12:12;;;;;;;63.45;28.15;;;;;;;1.85;47.39;96524.47;5063183;28;20032;-84
2022/03/22 02:14:37;;;;;;;60.92;29.40;;;;;;;1.50;47.13;96460.75;5071042;28;20090;-83
2022/03/22 02:17:09;;;;;;;57.10;27.88;;;;;;;2.59;46.32;96610.56;5065687;28;20529;-83
2022/03/22 02:19:39;;;;;;;69.32;28.38;;;;;;;1.64;46.98;96446.00;5076388;28;20489;-83
2022/03/22 02:22:08;;;;;;;60.95;27.70;;;;;;;2.78;47.27;96619.56;5070187;28;20113;-83
2022/03/22 02:24:35;;;;;;;60.70;28.80;;;;;;;2.31;47.25;96550.25;5051795;28;20051;-83
2022/03/22 02:27:01;;;;;;;58.47;27.70;;;;;;;2.80;47.16;96626.25;5062529;28;20035;-83
2022/03/22 02:29:27;;;;;;;63.97;29.52;;;;;;;2.46;47.35;96577.19;5071644;28;20043;-84
2022/03/22 02:31:54;;;;;;;58.50;28.77;;;;;;;1.99;47.34;96488.78;5071787;28;20024;-83
2022/03/22 02:34:19;;;;;;;60.40;27.38;;;;;;;2.10;46.98;96508.41;5086464;28;20119;-83
2022/03/22 02:36:45;;;;;;;60.33;27.23;;;;;;;1.68;47.15;96449.06;5068613;28;20131;-83
2022/03/22 02:39:11;;;;;;;57.88;28.42;;;;;;;1.44;47.68;96431.94;5065216;28;20035;-84
2022/03/22 02:41:36;;;;;;;100.97;38.85;;;;;;;1.79;48.02;96512.16;5070972;28;20621;-84
2022/03/22 02:44:02;;;;;;;125.47;52.33;;;;;;;1.67;49.19;96508.41;5053394;28;20032;-84
2022/03/22 02:46:27;;;;;;;141.77;59.40;;;;;;;1.97;48.89;96543.13;5065349;28;20032;-84
2022/03/22 02:48:54;;;;;;;153.90;60.40;;;;;;;1.83;48.64;96538.75;5053486;28;20514;-83
2022/03/22 02:51:20;;;;;;;137.52;59.25;;;;;;;1.35;49.15;96514.06;5055626;28;20027;-83
2022/03/22 02:53:45;;;;;;;143.05;59.10;;;;;;;1.07;48.95;96466.88;5083939;28;20100;-84
2022/03/22 02:56:11;;;;;;;146.30;58.75;;;;;;;0.95;49.34;96439.63;5077351;28;20036;-83
2022/03/22 02:58:36;;;;;;;140.50;59.13;;;;;;;0.89;49.31;96448.19;5077882;28;20020;-83
2022/03/22 03:01:02;;;;;;;122.82;53.00;;;;;;;1.55;50.12;96583.91;5066414;28;20120;-83
2022/03/22 03:03:28;;;;;;;117.28;50.25;;;;;;;1.01;49.23;96470.25;5072274;28;20032;-83
2022/03/22 03:05:53;;;;;;;116.57;49.67;;;;;;;1.06;48.59;96509.72;5065563;28;20032;-84
2022/03/22 03:08:19;;;;;;;117.15;49.53;;;;;;;1.80;49.06;96631.47;5085435;28;20517;-84
2022/03/22 03:10:46;;;;;;;134.60;54.60;;;;;;;0.87;49.68;96516.28;5071092;28;20042;-83
2022/03/22 03:13:12;;;;;;;135.45;55.67;;;;;;;1.66;49.87;96624.47;5069749;28;20042;-84
2022/03/22 03:15:38;;;;;;;129.60;53.83;;;;;;;1.75;49.79;96631.22;5069834;28;20074;-83
2022/03/22 03:18:04;;;;;;;133.73;51.25;;;;;;;1.25;51.10;96615.47;5065916;28;20012;-84
2022/03/22 03:20:30;;;;;;;126.53;50.58;;;;;;;1.05;51.04;96594.31;5100488;28;20044;-83
2022/03/22 03:22:56;;;;;;;116.03;47.58;;;;;;;0.80;50.73;96535.47;5084164;28;20494;-83
2022/03/22 03:25:22;;;;;;;112.38;45.92;;;;;;;0.89;51.26;96565.72;5069260;28;20394;-83
2022/03/22 03:27:48;;;;;;;111.30;45.38;;;;;;;-1.34;51.78;96228.28;5069712;28;20020;-83
2022/03/22 03:30:14;;;;;;;109.65;45.22;;;;;;;1.10;50.98;96608.44;5056930;28;20038;-83
2022/03/22 03:32:39;;;;;;;92.53;41.70;;;;;;;0.55;51.50;96556.59;5078815;28;20036;-84
2022/03/22 03:35:05;;;;;;;105.60;44.13;;;;;;;1.15;51.69;96629.59;5051209;28;20106;-84
2022/03/22 03:37:35;;;;;;;109.25;43.75;;;;;;;0.82;51.64;96572.66;5051052;28;20033;-84
2022/03/22 03:40:03;;;;;;;103.38;42.50;;;;;;;0.38;51.37;96527.19;5069655;28;20092;-83
2022/03/22 03:42:29;;;;;;;94.75;42.22;;;;;;;0.39;51.82;96590.66;5050954;28;20024;-83
2022/03/22 03:47:38;;;;;;;102.20;41.10;;;;;;;-0.36;51.65;96451.53;5083637;28;20035;-83
2022/03/22 03:50:05;;;;;;;94.22;41.50;;;;;;;0.26;52.29;96546.06;5082619;28;20044;-84
2022/03/22 03:52:33;;;;;;;94.47;39.80;;;;;;;0.47;51.68;96548.81;5052492;28;20119;-83
2022/03/22 03:55:00;;;;;;;94.20;40.40;;;;;;;0.86;51.58;96620.94;5064280;28;20032;-82
2022/03/22 03:57:26;;;;;;;92.93;39.03;;;;;;;0.13;52.23;96514.56;5050586;28;20494;-83
2022/03/22 03:59:54;;;;;;;93.88;41.38;;;;;;;0.85;52.36;96622.72;5072621;28;20430;-83
2022/03/22 04:02:20;;;;;;;108.50;44.35;;;;;;;0.53;52.04;96595.13;5098623;28;20016;-83
2022/03/22 04:04:55;;;;;;;94.70;41.58;;;;;;;0.23;51.65;96507.31;5093349;28;20028;-84
2022/03/22 04:07:26;;;;;;;102.57;40.55;;;;;;;1.03;52.12;96628.44;5059012;28;20024;-83
2022/03/22 04:09:54;;;;;;;103.10;41.23;;;;;;;0.46;52.89;96607.22;5082939;28;20097;-83
2022/03/22 04:12:19;;;;;;;92.93;37.20;;;;;;;-0.42;52.96;96461.69;5093369;28;20052;-83
2022/03/22 04:14:48;;;;;;;89.00;39.45;;;;;;;-0.10;53.00;96504.16;5068628;28;20101;-83
2022/03/22 04:17:14;;;;;;;110.22;41.70;;;;;;;0.07;52.73;96502.22;5068403;28;20032;-83
2022/03/22 04:19:39;;;;;;;108.65;40.58;;;;;;;-0.97;53.29;96362.09;5064581;28;20024;-83
2022/03/22 04:22:08;;;;;;;116.88;43.65;;;;;;;0.70;53.08;96624.50;5067830;28;20039;-83
2022/03/22 04:24:33;;;;;;;104.47;42.20;;;;;;;-0.29;52.98;96466.31;5081595;28;20111;-83
2022/03/22 04:32:41;;;;;;;110.75;42.15;;;;;;;0.57;52.78;96585.94;5068040;28;20106;-84
2022/03/22 04:32:41;;;;;;;112.20;45.35;;;;;;;0.25;53.25;96547.88;5076753;28;20034;-83
2022/03/22 04:35:08;;;;;;;113.35;45.88;;;;;;;0.29;53.35;96551.78;5066238;28;20032;-84
2022/03/22 04:37:33;;;;;;;104.78;42.83;;;;;;;-0.94;54.05;96399.03;5099676;28;20040;-83
2022/03/22 04:40:00;;;;;;;101.28;42.97;;;;;;;-0.19;53.75;96490.34;5053133;28;20509;-83
2022/03/22 04:42:26;;;;;;;96.15;39.85;;;;;;;0.73;53.33;96622.34;5067540;28;20043;-83
2022/03/22 04:44:51;;;;;;;97.07;40.10;;;;;;;-0.17;53.29;96480.56;5052471;28;20026;-83
2022/03/22 04:47:17;;;;;;;94.85;38.53;;;;;;;0.89;53.02;96628.41;5068427;28;20500;-84
2022/03/22 04:49:42;;;;;;;97.20;39.35;;;;;;;-0.44;52.78;96388.06;5064570;28;20024;-83
2022/03/22 04:57:36;;;;;;;100.47;40.28;;;;;;;0.46;52.80;96568.06;5077668;28;20101;-83
2022/03/22 05:00:03;;;;;;;95.47;41.58;;;;;;;0.61;52.84;96581.19;5067168;28;20032;-84
2022/03/22 05:02:29;;;;;;;101.32;39.55;;;;;;;0.92;53.09;96621.03;5101073;28;20036;-84
2022/03/22 05:04:54;;;;;;;100.72;40.88;;;;;;;0.86;52.51;96579.13;5076128;28;20036;-84
2022/03/22 05:07:20;;;;;;;109.95;41.38;;;;;;;0.45;52.62;96540.38;5047201;28;20036;-85
2022/03/22 05:09:45;;;;;;;107.85;42.35;;;;;;;-0.53;53.06;96370.88;5077930;28;20049;-84
2022/03/22 05:12:13;;;;;;;113.32;43.17;;;;;;;0.30;53.20;96500.41;5067530;28;20047;-84
2022/03/22 05:14:40;;;;;;;116.95;44.45;;;;;;;0.74;53.02;96570.94;5044750;28;20033;-84
2022/03/22 05:17:06;;;;;;;118.88;47.47;;;;;;;0.67;53.13;96570.84;5071582;28;20510;-84
2022/03/22 05:19:31;;;;;;;121.45;43.58;;;;;;;0.34;53.16;96528.56;5054632;28;20024;-84
2022/03/22 05:21:56;;;;;;;94.53;40.42;;;;;;;0.69;52.16;96584.50;5059871;28;20338;-84
2022/03/22 05:24:22;;;;;;;108.10;41.15;;;;;;;0.23;52.43;96489.84;5043408;28;20033;-84
2022/03/22 05:26:47;;;;;;;105.00;43.05;;;;;;;-0.92;52.06;96294.69;5049663;28;20033;-84
2022/03/22 05:29:13;;;;;;;97.55;40.92;;;;;;;-0.73;51.67;96282.97;5068732;28;20083;-84
2022/03/22 05:31:39;;;;;;;115.72;39.25;;;;;;;1.48;51.70;96608.34;5046861;28;20032;-84
2022/03/22 05:34:05;;;;;;;98.55;38.85;;;;;;;0.95;50.96;96503.13;5047089;28;20074;-84
2022/03/22 05:36:31;;;;;;;96.95;40.60;;;;;;;1.14;50.44;96526.06;5049663;28;20044;-85
2022/03/22 05:38:56;;;;;;;105.28;37.83;;;;;;;1.32;50.85;96564.91;5045131;28;20044;-85
2022/03/22 05:41:23;;;;;;;110.00;39.22;;;;;;;0.76;50.97;96457.47;5053452;28;20292;-84
2022/03/22 05:43:48;;;;;;;96.82;39.65;;;;;;;1.51;50.54;96568.78;5051703;28;20142;-84
2022/03/22 05:46:17;;;;;;;88.20;36.72;;;;;;;1.75;50.36;96620.75;5058804;28;20084;-85
2022/03/22 05:48:48;;;;;;;100.93;39.53;;;;;;;1.08;50.40;96526.81;5060931;28;20048;-85
2022/03/22 05:51:16;;;;;;;103.50;38.58;;;;;;;1.59;50.54;96576.50;5051139;28;20024;-85
2022/03/22 05:53:43;;;;;;;85.88;34.60;;;;;;;1.44;49.51;96518.22;5067166;28;20025;-86
2022/03/22 05:56:09;;;;;;;98.50;37.90;;;;;;;2.11;49.69;96609.47;5044813;28;20124;-85
2022/03/22 05:58:34;;;;;;;75.68;31.60;;;;;;;1.53;48.50;96528.34;5067030;28;20657;-83
2022/03/22 06:01:00;;;;;;;86.60;33.78;;;;;;;1.79;48.71;96533.06;5046122;28;20033;-85
2022/03/22 06:03:25;;;;;;;78.38;33.50;;;;;;;1.14;49.16;96463.38;5049083;28;20048;-84
2022/03/22 06:05:56;;;;;;;87.82;34.53;;;;;;;1.37;48.84;96494.63;5047953;28;20034;-85
2022/03/22 06:08:25;;;;;;;80.00;34.10;;;;;;;-0.28;48.25;96196.00;5067569;28;20040;-85
2022/03/22 06:10:50;;;;;;;75.40;31.13;;;;;;;1.70;47.38;96500.19;5050885;28;20464;-85
2022/03/22 06:13:16;;;;;;;64.63;27.55;;;;;;;0.65;45.89;96311.72;5045561;28;20194;-85
2022/03/22 06:15:43;;;;;;;58.75;23.80;;;;;;;1.40;44.83;96430.69;5050400;28;20028;-85
2022/03/22 06:18:11;;;;;;;52.05;23.90;;;;;;;1.76;43.56;96462.00;5065033;28;20307;-84
2022/03/22 06:20:39;;;;;;;52.72;22.38;;;;;;;2.43;43.15;96561.06;5048134;28;20075;-85
2022/03/22 06:23:06;;;;;;;47.70;20.73;;;;;;;2.28;42.10;96516.63;5081662;28;20036;-85
2022/03/22 06:25:32;;;;;;;40.78;18.83;;;;;;;2.37;41.58;96509.44;5061250;28;20032;-85
2022/03/22 06:27:58;;;;;;;47.20;20.38;;;;;;;2.15;41.07;96454.50;5045094;28;20406;-85
2022/03/22 06:30:25;;;;;;;37.53;17.67;;;;;;;3.20;40.23;96602.94;5044383;28;20113;-85
2022/03/22 06:32:52;;;;;;;40.35;18.60;;;;;;;2.78;39.65;96488.56;5041713;28;20502;-84
2022/03/22 06:35:20;;;;;;;33.10;15.85;;;;;;;3.23;38.91;96545.66;5042483;28;20032;-84
2022/03/22 06:37:46;;;;;;;40.40;16.83;;;;;;;3.62;38.48;96587.00;5049987;28;20365;-84
2022/03/22 06:40:14;;;;;;;34.97;16.00;;;;;;;2.78;38.36;96433.53;5043775;28;20036;-84
2022/03/22 06:42:40;;;;;;;42.08;18.10;;;;;;;3.82;38.20;96589.69;5047097;28;20024;-84
2022/03/22 06:45:06;;;;;;;37.78;16.55;;;;;;;3.39;38.07;96519.13;5043903;28;20078;-84
2022/03/22 06:47:33;;;;;;;39.28;15.93;;;;;;;2.42;37.90;96350.78;5045804;28;20033;-84
2022/03/22 06:49:59;;;;;;;37.50;16.67;;;;;;;3.25;37.25;96470.25;5040779;28;20025;-83
2022/03/22 06:52:26;;;;;;;40.45;16.92;;;;;;;4.18;37.01;96592.84;5040365;28;20319;-83
2022/03/22 06:54:51;;;;;;;44.47;17.35;;;;;;;3.63;37.26;96483.69;5048897;28;20118;-84
2022/03/22 06:57:17;;;;;;;33.50;14.40;;;;;;;3.79;36.12;96501.69;5065663;28;20057;-84
2022/03/22 06:59:42;;;;;;;32.47;14.85;;;;;;;3.66;35.58;96449.16;5054983;28;20033;-84
2022/03/22 07:02:09;;;;;;;30.45;13.90;;;;;;;4.59;35.70;96586.63;5045207;28;20040;-84
2022/03/22 07:04:34;;;;;;;30.73;13.93;;;;;;;4.62;35.09;96580.97;5041820;28;20300;-84
2022/03/22 07:07:01;;;;;;;35.60;13.32;;;;;;;3.77;35.45;96439.91;5062990;28;20039;-84
2022/03/22 07:09:29;;;;;;;34.80;14.77;;;;;;;4.08;35.26;96449.84;5054639;28;20045;-84
2022/03/22 07:11:56;;;;;;;30.73;14.48;;;;;;;4.41;34.62;96484.78;5041646;28;20033;-84
2022/03/22 07:14:27;;;;;;;33.53;13.80;;;;;;;5.11;34.32;96582.38;5046254;28;20031;-84
2022/03/22 07:16:53;;;;;;;28.85;13.90;;;;;;;4.71;34.14;96531.66;5071679;28;20035;-84
2022/03/22 07:19:22;;;;;;;29.75;12.77;;;;;;;5.21;34.49;96588.00;5067201;28;20598;-84
2022/03/22 07:21:49;;;;;;;30.60;12.68;;;;;;;5.39;34.84;96582.91;5066889;28;20049;-83
2022/03/22 07:24:18;;;;;;;27.02;13.07;;;;;;;5.41;34.07;96578.25;5044027;28;20497;-83
2022/03/22 07:26:44;;;;;;;24.17;13.02;;;;;;;5.00;34.53;96486.50;5057756;28;20036;-84
2022/03/22 07:29:10;;;;;;;27.42;13.13;;;;;;;5.34;34.18;96527.50;5056982;28;20176;-84
2022/03/22 07:31:38;;;;;;;26.85;13.55;;;;;;;5.23;34.24;96523.66;5037129;28;20040;-84
2022/03/22 07:34:08;;;;;;;26.90;12.30;;;;;;;5.20;34.78;96496.97;5037417;28;20224;-85
2022/03/22 07:36:39;;;;;;;26.33;12.18;;;;;;;4.63;34.31;96385.53;5052170;28;20055;-84
2022/03/22 07:39:07;;;;;;;33.40;15.38;;;;;;;5.41;34.22;96507.22;5046074;28;20063;-84
2022/03/22 07:41:43;;;;;;;30.38;13.02;;;;;;;4.84;34.58;96408.91;5059805;28;20529;-84
2022/03/22 07:44:12;;;;;;;26.10;13.15;;;;;;;3.96;33.94;96254.59;5069720;28;20399;-84
2022/03/22 07:46:37;;;;;;;32.38;13.32;;;;;;;4.23;34.30;96295.53;5060537;28;20078;-84
2022/03/22 07:54:31;;;;;;;23.55;11.65;;;;;;;5.78;35.64;96537.22;5062888;28;20040;-84
2022/03/22 07:56:57;;;;;;;28.17;13.35;;;;;;;5.98;35.10;96568.75;5060923;28;20036;-84
2022/03/22 07:59:27;;;;;;;28.20;12.68;;;;;;;5.15;34.70;96400.28;5035787;28;20048;-84
2022/03/22 08:01:53;;;;;;;25.90;11.60;;;;;;;6.27;34.92;96562.09;5051417;28;20036;-85
2022/03/22 08:04:19;;;;;;;27.70;13.23;;;;;;;5.92;34.83;96504.56;5074419;28;20051;-85
2022/03/22 08:06:47;;;;;;;28.73;12.50;;;;;;;4.25;34.99;96222.59;5059904;28;20800;-85
2022/03/22 08:09:16;;;;;;;30.02;13.80;;;;;;;6.24;34.41;96518.53;5076155;28;20303;-84
2022/03/22 08:11:45;;;;;;;31.80;13.90;;;;;;;3.60;35.39;96098.47;5049354;28;20415;-85
2022/03/22 08:14:11;;;;;;;28.23;13.32;;;;;;;1.61;35.09;95816.25;5089805;28;20044;-83
2022/03/22 08:16:37;;;;;;;25.35;11.82;;;;;;;3.67;35.32;96133.34;5069925;28;20040;-84
2022/03/22 08:19:05;;;;;;;28.25;13.80;;;;;;;4.15;34.95;96217.78;5046116;28;20141;-85
2022/03/22 08:21:34;;;;;;;27.20;13.32;;;;;;;1.44;35.24;95792.34;5046270;28;20281;-85
2022/03/22 08:24:06;;;;;;;28.95;13.30;;;;;;;3.03;34.90;96003.06;5046128;28;20317;-84
2022/03/22 08:26:36;;;;;;;25.45;13.75;;;;;;;2.15;35.22;95842.13;5049508;28;20046;-85
2022/03/22 08:29:03;;;;;;;26.63;12.10;;;;;;;5.23;34.64;96308.00;5040109;28;20071;-83
2022/03/22 08:31:28;;;;;;;25.40;12.65;;;;;;;6.40;35.27;96525.94;5043646;28;20036;-83
2022/03/22 08:33:56;;;;;;;29.55;14.40;;;;;;;3.75;35.63;96095.59;5042746;28;20534;-84
2022/03/22 08:36:24;;;;;;;25.50;12.60;;;;;;;1.94;35.36;95824.88;5078268;28;20063;-84
2022/03/22 08:38:51;;;;;;;31.88;14.27;;;;;;;3.95;35.48;96140.94;5046332;28;20414;-84
2022/03/22 08:41:17;;;;;;;26.08;13.32;;;;;;;2.00;34.84;95778.78;5078951;28;20032;-83
2022/03/22 08:44:03;;;;;;;28.73;14.77;;;;;;;7.02;34.38;96560.31;5067939;28;20082;-85
2022/03/22 08:46:29;;;;;;;27.23;13.48;;;;;;;4.66;35.06;96182.78;5036172;28;20032;-84
2022/03/22 08:48:55;;;;;;;30.50;14.50;;;;;;;5.13;36.14;96225.31;5060354;28;20181;-86
2022/03/22 08:51:24;;;;;;;31.25;14.73;;;;;;;6.33;35.74;96380.22;5055074;28;20063;-84
2022/03/22 08:53:54;;;;;;;32.50;13.55;;;;;;;3.14;35.17;95843.56;5050329;28;20025;-85
2022/03/22 08:56:22;;;;;;;32.28;14.15;;;;;;;7.25;36.18;96540.16;5028588;28;20063;-84
2022/03/22 08:58:52;;;;;;;35.42;14.40;;;;;;;6.75;38.11;96423.41;5059332;28;20028;-86
2022/03/22 09:01:18;;;;;;;34.35;15.15;;;;;;;7.23;40.06;96525.59;5041022;28;20047;-84
2022/03/22 09:03:43;;;;;;;34.80;15.02;;;;;;;7.50;39.24;96541.91;5042019;28;20029;-84
2022/03/22 09:06:09;;;;;;;35.97;15.15;;;;;;;5.44;39.68;96218.19;5041730;28;20138;-84
2022/03/22 09:08:42;;;;;;;27.83;13.43;;;;;;;5.88;40.25;96289.28;5043204;28;20048;-85
2022/03/22 09:11:09;;;;;;;33.15;13.50;;;;;;;7.21;41.27;96482.78;5038150;28;20032;-84
2022/03/22 09:13:37;;;;;;;24.33;12.18;;;;;;;7.59;42.32;96573.09;5062633;28;20028;-84
2022/03/22 09:16:05;;;;;;;32.05;13.60;;;;;;;7.30;42.21;96477.00;5037263;28;20033;-85
2022/03/22 09:18:30;;;;;;;32.53;13.65;;;;;;;6.29;42.95;96315.84;5042401;28;20649;-85
2022/03/22 09:20:56;;;;;;;33.33;12.65;;;;;;;7.28;42.64;96512.53;5041505;28;20128;-84
2022/03/22 09:23:21;;;;;;;34.42;13.63;;;;;;;6.68;42.88;96411.34;5045027;28;20032;-84
2022/03/22 09:25:47;;;;;;;25.55;12.20;;;;;;;7.51;43.35;96543.53;5060249;28;20437;-85
2022/03/22 09:28:13;;;;;;;31.08;12.52;;;;;;;7.46;43.78;96517.81;5060874;28;20035;-84
2022/03/22 09:30:39;;;;;;;33.10;12.25;;;;;;;7.59;43.85;96530.03;5063124;28;20843;-84
2022/03/22 09:33:07;;;;;;;28.50;12.27;;;;;;;7.62;42.88;96509.31;5031731;28;20137;-83
2022/03/22 09:35:34;;;;;;;28.52;12.27;;;;;;;7.80;42.91;96511.09;5038779;28;20031;-84
2022/03/22 09:38:00;;;;;;;25.35;12.07;;;;;;;7.61;42.21;96491.03;5055005;28;20063;-85
2022/03/22 09:40:27;;;;;;;23.30;11.98;;;;;;;7.02;44.17;96404.69;5069972;28;20387;-84
2022/03/22 09:42:54;;;;;;;23.15;10.43;;;;;;;6.91;43.76;96371.94;5037930;28;20017;-84
2022/03/22 09:45:26;;;;;;;23.42;10.25;;;;;;;7.82;43.53;96521.44;5050159;28;20020;-84
2022/03/22 09:47:54;;;;;;;;;;;;;;;7.71;43.84;96507.94;5022830;28;20031;-85
2022/03/22 09:51:44;;;;;;;22.23;9.63;;;;;;;7.38;44.47;96456.59;5044221;28;20015;-84
2022/03/22 09:53:06;;;;;;;26.58;10.90;;;;;;;7.70;43.77;96461.44;5049979;28;20043;-85
2022/03/22 09:55:34;;;;;;;27.02;11.20;;;;;;;6.94;44.70;96351.19;5078297;28;20036;-85
2022/03/22 09:58:00;;;;;;;16.98;9.50;;;;;;;7.17;43.34;96354.97;5046314;28;20028;-83
2022/03/22 10:00:26;;;;;;;22.38;10.38;;;;;;;7.89;43.50;96445.53;5052339;28;20579;-84
2022/03/22 10:02:51;;;;;;;25.30;10.57;;;;;;;7.92;42.90;96439.81;5044200;28;20061;-83
2022/03/22 10:05:22;;;;;;;22.75;10.48;;;;;;;8.11;41.90;96458.00;5062386;28;20032;-83
2022/03/22 10:08:04;;;;;;;20.88;10.23;;;;;;;8.37;41.53;96451.56;5044213;28;20032;-83
2022/03/22 10:10:29;;;;;;;22.85;10.20;;;;;;;8.30;43.11;96444.72;5041086;28;20036;-84
2022/03/22 10:13:00;;;;;;;21.23;8.63;;;;;;;8.51;42.82;96468.00;5048072;28;20058;-85
2022/03/22 10:15:36;;;;;;;24.30;10.02;;;;;;;8.45;42.18;96386.97;5081875;28;20577;-85
2022/03/22 10:18:08;;;;;;;19.65;8.70;;;;;;;8.79;42.23;96409.09;5034889;28;20241;-85
2022/03/22 10:20:35;;;;;;;20.88;9.30;;;;;;;9.45;42.53;96458.94;5040614;28;20495;-86
2022/03/22 10:23:05;;;;;;;24.25;9.90;;;;;;;9.37;40.90;96348.09;5053631;28;20064;-85
2022/03/22 10:25:33;;;;;;;20.85;8.80;;;;;;;8.08;40.09;96128.22;5059246;28;20514;-85
2022/03/22 10:28:04;;;;;;;17.60;9.07;;;;;;;9.94;40.90;96427.50;5045414;28;20036;-85
2022/03/22 10:30:31;;;;;;;21.15;9.73;;;;;;;10.49;38.41;96350.72;5040999;28;20120;-85
2022/03/22 10:33:00;;;;;;;24.13;10.63;;;;;;;10.49;38.41;96350.72;5054035;28;20040;-85
2022/03/22 10:35:31;;;;;;;23.30;10.48;;;;;;;11.94;36.00;96349.22;5035726;28;20028;-85
2022/03/22 10:38:01;;;;;;;21.98;10.07;;;;;;;12.53;35.18;96420.94;5075588;28;20044;-85
2022/03/22 10:40:30;;;;;;;19.63;9.60;;;;;;;11.40;34.79;96176.56;5077874;28;20101;-85
2022/03/22 10:43:01;;;;;;;18.20;10.02;;;;;;;13.08;34.33;96412.50;5052878;28;20808;-85
2022/03/22 10:45:28;;;;;;;19.02;9.65;;;;;;;12.94;33.85;96393.53;5081510;28;20037;-85
2022/03/22 10:47:57;;;;;;;17.52;9.73;;;;;;;13.25;34.18;96378.53;5047332;28;20569;-85
2022/03/22 10:50:24;;;;;;;20.70;9.15;;;;;;;11.85;33.85;96112.31;5038971;28;20028;-84
2022/03/22 10:52:54;;;;;;;20.45;9.73;;;;;;;13.62;33.11;96333.06;5038051;28;20361;-84
2022/03/22 10:55:21;;;;;;;27.60;10.90;;;;;;;13.34;33.23;96291.72;5060818;28;20430;-85
2022/03/22 10:57:53;;;;;;;34.30;11.40;;;;;;;14.22;31.30;96382.97;5087720;28;20071;-85
2022/03/22 11:00:20;;;;;;;22.30;10.20;;;;;;;14.07;32.83;96400.84;5050352;28;20044;-85
2022/03/22 11:02:49;;;;;;;19.27;8.57;;;;;;;14.25;31.99;96365.63;5048450;28;20094;-85
2022/03/22 11:05:15;;;;;;;20.50;9.30;;;;;;;12.52;30.76;96006.91;5041324;28;20032;-86
2022/03/22 11:07:42;;;;;;;20.35;9.40;;;;;;;12.52;30.76;96006.91;5043472;28;20036;-86
2022/03/22 11:10:08;;;;;;;24.48;9.48;;;;;;;13.87;29.63;96140.31;5039843;28;20044;-86
2022/03/22 11:12:34;;;;;;;27.80;8.93;;;;;;;15.88;28.78;96371.25;5079423;28;20106;-86
2022/03/22 11:15:01;;;;;;;22.08;8.20;;;;;;;16.35;27.88;96370.66;5042318;28;20278;-85
2022/03/22 11:17:34;;;;;;;40.75;11.65;;;;;;;16.18;27.50;96272.81;5075666;28;20043;-84
2022/03/22 11:20:01;;;;;;;19.55;9.48;;;;;;;16.46;26.95;96305.25;5056165;28;20492;-84
2022/03/22 11:22:32;;;;;;;22.40;8.80;;;;;;;16.30;28.01;96338.56;5032282;28;20044;-84
2022/03/22 11:25:12;;;;;;;23.48;8.25;;;;;;;12.60;28.11;95767.72;5071612;28;20492;-85
2022/03/22 11:27:39;;;;;;;17.05;7.85;;;;;;;15.41;27.32;96159.53;5054370;28;20437;-84
2022/03/22 11:30:06;;;;;;;14.50;8.35;;;;;;;16.63;27.74;96259.31;5038094;28;20025;-85
2022/03/22 11:35:18;;;;;;;16.50;8.30;;;;;;;17.52;26.20;96330.81;5054905;28;20693;-84
2022/03/22 11:38:00;;;;;;;25.65;9.52;;;;;;;17.42;25.69;96260.41;5040263;28;20433;-84
2022/03/22 11:43:13;;;;;;;14.48;7.80;;;;;;;18.62;24.33;96336.63;5053931;28;20636;-84
2022/03/22 11:45:51;;;;;;;15.27;8.15;;;;;;;16.92;25.63;96231.34;5055696;28;20283;-84
2022/03/22 11:48:17;;;;;;;19.30;7.47;;;;;;;15.55;26.42;96079.53;5038034;28;20089;-85
2022/03/22 11:50:46;;;;;;;18.42;8.73;;;;;;;16.35;25.88;96116.34;5055647;28;20783;-84
2022/03/22 11:53:20;;;;;;;12.25;8.13;;;;;;;16.66;24.18;96122.94;5045386;28;20371;-84
2022/03/22 11:55:53;;;;;;;25.92;9.18;;;;;;;16.79;24.60;96248.09;5077508;28;20147;-84
2022/03/22 11:58:20;;;;;;;22.70;8.88;;;;;;;15.63;25.09;96029.97;5048344;28;20601;-84
2022/03/22 12:00:56;;;;;;;18.40;8.82;;;;;;;17.06;24.17;96265.47;5044038;28;20032;-84
2022/03/22 12:03:28;;;;;;;23.02;8.25;;;;;;;17.20;23.94;96239.53;5043505;28;20028;-85
2022/03/22 12:05:54;;;;;;;23.23;8.35;;;;;;;17.00;23.26;96269.31;5037960;28;20044;-85
2022/03/22 12:08:20;;;;;;;20.67;7.65;;;;;;;16.36;23.36;96230.38;5044655;28;20052;-84
2022/03/22 12:10:54;;;;;;;26.55;8.98;;;;;;;16.20;24.38;96217.16;5063760;28;20033;-84
2022/03/22 12:13:21;;;;;;;21.38;8.40;;;;;;;16.53;24.25;96250.25;5033065;28;20066;-85
2022/03/22 12:15:49;;;;;;;16.05;8.23;;;;;;;15.83;25.24;96193.69;5053483;28;20597;-84
2022/03/22 12:18:15;;;;;;;17.83;8.65;;;;;;;16.77;24.68;96252.16;5075073;28;20098;-84